createdAt,value
2023-01-19T00:00:38.230Z,73.54
2023-01-19T00:02:09.787Z,74.22
2023-01-19T00:03:42.205Z,73.71
2023-01-19T00:05:15.140Z,73.78
2023-01-19T00:06:46.646Z,73.57
2023-01-19T00:08:18.675Z,73.77
2023-01-19T00:09:50.121Z,73.63
2023-01-19T00:11:21.624Z,73.81
2023-01-19T00:12:53.106Z,73.65
2023-01-19T00:14:24.528Z,73.61
2023-01-19T00:15:56.153Z,73.66
2023-01-19T00:17:27.636Z,73.68
2023-01-19T00:18:59.174Z,73.59
2023-01-19T00:20:32.824Z,73.79
2023-01-19T00:22:05.944Z,73.70
2023-01-19T00:23:37.466Z,73.58
2023-01-19T00:25:09.454Z,73.75
2023-01-19T00:26:42.784Z,73.86
2023-01-19T00:28:15.317Z,73.68
2023-01-19T00:29:46.864Z,73.66
2023-01-19T00:31:20.588Z,73.58
2023-01-19T00:32:52.174Z,73.86
2023-01-19T00:34:23.716Z,73.95
2023-01-19T00:35:56.520Z,73.62
2023-01-19T00:37:27.964Z,73.62
2023-01-19T00:38:59.923Z,73.97
2023-01-19T00:40:31.526Z,73.87
2023-01-19T00:42:21.997Z,73.79
2023-01-19T00:43:53.942Z,73.84
2023-01-19T00:45:25.723Z,73.88
2023-01-19T00:46:57.294Z,74.06
2023-01-19T00:48:29.468Z,73.76
2023-01-19T00:50:00.979Z,74.04
2023-01-19T00:51:33.849Z,74.17
2023-01-19T00:53:05.324Z,74.22
2023-01-19T00:54:36.774Z,74.14
2023-01-19T00:56:08.278Z,74.15
2023-01-19T00:57:40.296Z,74.22
2023-01-19T00:59:11.978Z,74.04
2023-01-19T01:00:44.684Z,74.40
2023-01-19T01:02:16.334Z,74.09
2023-01-19T01:03:47.884Z,74.14
2023-01-19T01:05:20.040Z,74.28
2023-01-19T01:06:52.901Z,74.19
2023-01-19T01:08:24.404Z,74.34
2023-01-19T01:09:56.684Z,74.43
2023-01-19T01:11:28.197Z,74.57
2023-01-19T01:12:59.719Z,74.35
2023-01-19T01:14:51.155Z,74.29
2023-01-19T01:16:23.130Z,74.29
2023-01-19T01:17:54.766Z,74.28
2023-01-19T01:19:26.260Z,74.15
2023-01-19T01:21:00.755Z,74.46
2023-01-19T01:22:36.300Z,74.47
2023-01-19T01:24:08.558Z,74.47
2023-01-19T01:25:40.128Z,74.40
2023-01-19T01:27:11.887Z,74.60
2023-01-19T01:28:43.429Z,74.25
2023-01-19T01:30:15.484Z,74.08
2023-01-19T01:31:46.955Z,74.27
2023-01-19T01:33:40.737Z,74.31
2023-01-19T01:35:10.191Z,74.29
2023-01-19T01:36:41.728Z,73.99
2023-01-19T01:38:15.311Z,73.89
2023-01-19T01:39:46.793Z,73.61
2023-01-19T01:41:18.533Z,73.79
2023-01-19T01:42:53.352Z,73.77
2023-01-19T01:44:58.166Z,74.02
2023-01-19T01:46:30.360Z,73.74
2023-01-19T01:48:05.760Z,73.77
2023-01-19T01:49:37.328Z,73.89
2023-01-19T01:51:25.948Z,73.90
2023-01-19T01:53:07.406Z,73.97
2023-01-19T01:54:42.257Z,73.57
2023-01-19T01:56:16.297Z,73.67
2023-01-19T01:57:50.132Z,74.03
2023-01-19T01:59:32.477Z,73.79
2023-01-19T02:01:22.997Z,74.04
2023-01-19T02:03:00.160Z,73.94
2023-01-19T02:04:31.990Z,73.87
2023-01-19T02:06:07.115Z,73.77
2023-01-19T02:08:01.943Z,74.01
2023-01-19T02:09:54.619Z,73.99
2023-01-19T02:11:46.524Z,73.83
2023-01-19T02:13:19.594Z,73.92
2023-01-19T02:14:51.039Z,73.93
2023-01-19T02:16:22.634Z,73.79
2023-01-19T02:17:54.160Z,73.83
2023-01-19T02:19:30.771Z,73.89
2023-01-19T02:21:08.469Z,73.99
2023-01-19T02:22:44.685Z,73.90
2023-01-19T02:24:18.196Z,73.86
2023-01-19T02:25:49.825Z,74.13
2023-01-19T02:27:21.324Z,73.59
2023-01-19T02:28:57.382Z,73.83
2023-01-19T02:30:29.316Z,73.83
2023-01-19T02:32:02.550Z,73.79
2023-01-19T02:33:34.148Z,73.90
2023-01-19T02:35:06.323Z,73.86
2023-01-19T02:36:40.978Z,74.02
2023-01-19T02:38:14.114Z,74.01
2023-01-19T02:39:50.737Z,74.03
2023-01-19T02:41:24.855Z,74.10
2023-01-19T02:42:58.630Z,73.98
2023-01-19T02:44:31.661Z,73.82
2023-01-19T02:46:03.599Z,73.93
2023-01-19T02:47:38.944Z,73.93
2023-01-19T02:49:10.406Z,73.77
2023-01-19T02:50:46.059Z,73.91
2023-01-19T02:52:18.125Z,73.86
2023-01-19T02:53:56.911Z,73.63
2023-01-19T02:55:31.430Z,73.82
2023-01-19T02:57:11.199Z,73.77
2023-01-19T02:58:44.987Z,73.43
2023-01-19T03:00:21.167Z,73.63
2023-01-19T03:02:01.488Z,73.70
2023-01-19T03:03:35.297Z,73.69
2023-01-19T03:05:15.502Z,73.77
2023-01-19T03:06:50.078Z,73.86
2023-01-19T03:08:27.502Z,74.28
2023-01-19T03:10:02.602Z,73.95
2023-01-19T03:11:38.264Z,73.93
2023-01-19T03:13:12.546Z,73.78
2023-01-19T03:14:47.586Z,73.70
2023-01-19T03:16:22.611Z,73.69
2023-01-19T03:17:56.051Z,73.59
2023-01-19T03:19:28.952Z,73.58
2023-01-19T03:21:03.725Z,73.79
2023-01-19T03:22:35.209Z,73.66
2023-01-19T03:24:08.037Z,73.46
2023-01-19T03:25:41.613Z,73.55
2023-01-19T03:27:17.252Z,73.62
2023-01-19T03:28:49.372Z,73.41
2023-01-19T03:30:22.907Z,73.23
2023-01-19T03:31:56.441Z,73.40
2023-01-19T03:33:29.184Z,72.97
2023-01-19T03:35:02.715Z,72.80
2023-01-19T03:36:35.749Z,73.15
2023-01-19T03:38:09.570Z,73.12
2023-01-19T03:39:41.129Z,72.89
2023-01-19T03:41:15.422Z,73.19
2023-01-19T03:42:50.151Z,72.99
2023-01-19T03:44:22.915Z,72.92
2023-01-19T03:45:55.804Z,73.09
2023-01-19T03:47:28.341Z,72.56
2023-01-19T03:48:59.901Z,72.65
2023-01-19T03:50:31.913Z,72.86
2023-01-19T03:52:03.479Z,72.66
2023-01-19T03:53:35.036Z,72.71
2023-01-19T03:55:06.829Z,72.58
2023-01-19T03:56:38.556Z,72.79
2023-01-19T03:58:11.472Z,72.66
2023-01-19T03:59:43.088Z,72.65
2023-01-19T04:01:15.323Z,72.58
2023-01-19T04:02:49.714Z,72.95
2023-01-19T04:04:21.245Z,72.80
2023-01-19T04:05:52.732Z,73.24
2023-01-19T04:07:24.265Z,73.73
2023-01-19T04:08:55.849Z,73.58
2023-01-19T04:10:27.334Z,74.03
2023-01-19T04:11:58.783Z,73.64
2023-01-19T04:13:31.814Z,74.22
2023-01-19T04:15:03.576Z,74.49
2023-01-19T04:16:35.172Z,74.73
2023-01-19T04:18:06.905Z,74.74
2023-01-19T04:19:38.569Z,74.94
2023-01-19T04:21:10.853Z,74.63
2023-01-19T04:22:42.538Z,75.25
2023-01-19T04:24:14.003Z,75.15
2023-01-19T04:25:45.501Z,75.16
2023-01-19T04:27:17.581Z,75.11
2023-01-19T04:28:50.392Z,75.22
2023-01-19T04:30:22.535Z,75.60
2023-01-19T04:31:54.053Z,75.62
2023-01-19T04:33:26.778Z,75.68
2023-01-19T04:34:58.241Z,75.57
2023-01-19T04:36:29.767Z,75.63
2023-01-19T04:38:01.208Z,75.85
2023-01-19T04:39:35.023Z,75.47
2023-01-19T04:41:06.530Z,75.88
2023-01-19T04:42:38.905Z,75.42
2023-01-19T04:44:11.759Z,75.60
2023-01-19T04:45:44.768Z,75.55
2023-01-19T04:47:16.252Z,75.29
2023-01-19T04:48:47.715Z,75.36
2023-01-19T04:50:19.425Z,75.54
2023-01-19T04:51:53.622Z,75.41
2023-01-19T04:53:25.118Z,75.68
2023-01-19T04:54:56.587Z,75.70
2023-01-19T04:56:28.235Z,75.58
2023-01-19T04:57:59.697Z,76.01
2023-01-19T04:59:32.828Z,76.18
2023-01-19T05:01:07.088Z,76.18
2023-01-19T05:02:38.946Z,76.68
2023-01-19T05:04:10.431Z,76.74
2023-01-19T05:05:41.875Z,76.66
2023-01-19T05:07:13.659Z,77.46
2023-01-19T05:08:45.532Z,77.28
2023-01-19T05:10:17.145Z,77.64
2023-01-19T05:11:48.611Z,77.64
2023-01-19T05:13:20.231Z,77.91
2023-01-19T05:14:53.089Z,78.27
2023-01-19T05:16:24.715Z,78.44
2023-01-19T05:17:57.983Z,78.17
2023-01-19T05:19:29.453Z,78.57
2023-01-19T05:21:01.418Z,78.67
2023-01-19T05:22:32.888Z,78.85
2023-01-19T05:24:04.469Z,78.69
2023-01-19T05:25:35.953Z,79.02
2023-01-19T05:27:07.447Z,78.75
2023-01-19T05:28:39.067Z,79.06
2023-01-19T05:30:13.235Z,79.52
2023-01-19T05:31:44.728Z,79.17
2023-01-19T05:33:16.256Z,79.45
2023-01-19T05:34:47.751Z,79.71
2023-01-19T05:36:19.196Z,80.10
2023-01-19T05:37:50.797Z,80.38
2023-01-19T05:39:22.275Z,80.44
2023-01-19T05:40:56.696Z,80.05
2023-01-19T05:42:28.153Z,80.16
2023-01-19T05:43:59.784Z,80.02
2023-01-19T05:45:32.642Z,80.03
2023-01-19T05:47:04.683Z,79.75
2023-01-19T05:48:36.212Z,80.14
2023-01-19T05:50:08.107Z,79.79
2023-01-19T05:51:40.418Z,80.12
2023-01-19T05:53:11.892Z,80.55
2023-01-19T05:54:43.530Z,80.89
2023-01-19T05:56:14.987Z,81.01
2023-01-19T05:57:46.509Z,81.56
2023-01-19T05:59:23.994Z,80.97
2023-01-19T06:00:57.231Z,80.38
2023-01-19T06:02:30.073Z,80.39
2023-01-19T06:04:01.557Z,80.06
2023-01-19T06:05:33.897Z,80.66
2023-01-19T06:07:06.483Z,80.73
2023-01-19T06:08:37.991Z,80.63
2023-01-19T06:10:10.064Z,80.71
2023-01-19T06:11:41.558Z,80.73
2023-01-19T06:13:13.187Z,80.46
2023-01-19T06:14:44.767Z,80.42
2023-01-19T06:16:17.703Z,80.12
2023-01-19T06:17:49.186Z,79.56
2023-01-19T06:19:20.748Z,79.55
2023-01-19T06:20:52.533Z,79.94
2023-01-19T06:22:24.538Z,80.10
2023-01-19T06:23:56.042Z,79.58
2023-01-19T06:25:27.549Z,79.65
2023-01-19T06:27:00.346Z,78.61
2023-01-19T06:28:31.841Z,78.15
2023-01-19T06:30:03.587Z,78.28
2023-01-19T06:31:36.591Z,78.26
2023-01-19T06:33:08.147Z,78.25
2023-01-19T06:34:43.518Z,78.82
2023-01-19T06:36:15.012Z,78.98
2023-01-19T06:37:46.749Z,79.10
2023-01-19T06:39:18.235Z,79.05
2023-01-19T06:40:54.057Z,79.32
2023-01-19T06:42:25.579Z,79.82
2023-01-19T06:43:57.082Z,79.60
2023-01-19T06:45:28.637Z,80.13
2023-01-19T06:47:15.493Z,79.93
2023-01-19T06:48:48.048Z,80.31
2023-01-19T06:50:19.878Z,79.69
2023-01-19T06:51:51.416Z,78.97
2023-01-19T06:53:23.005Z,78.43
2023-01-19T06:54:54.521Z,78.51
2023-01-19T06:56:28.098Z,79.03
2023-01-19T06:58:00.513Z,79.15
2023-01-19T06:59:32.054Z,79.28
2023-01-19T07:01:04.370Z,79.26
2023-01-19T07:02:37.648Z,78.99
2023-01-19T07:04:10.639Z,79.46
2023-01-19T07:05:42.187Z,79.00
2023-01-19T07:07:13.740Z,79.37
2023-01-19T07:08:45.276Z,79.17
2023-01-19T07:10:16.811Z,78.81
2023-01-19T07:11:49.087Z,79.00
2023-01-19T07:13:21.645Z,79.16
2023-01-19T07:14:53.140Z,79.26
2023-01-19T07:16:24.967Z,78.91
2023-01-19T07:17:58.939Z,79.15
2023-01-19T07:19:31.173Z,78.73
2023-01-19T07:21:05.065Z,78.75
2023-01-19T07:22:36.726Z,78.43
2023-01-19T07:24:08.738Z,78.13
2023-01-19T07:25:40.754Z,78.42
2023-01-19T07:27:12.230Z,79.08
2023-01-19T07:28:43.738Z,78.56
2023-01-19T07:30:18.443Z,79.04
2023-01-19T07:31:50.289Z,78.33
2023-01-19T07:33:24.356Z,78.02
2023-01-19T07:34:55.883Z,78.18
2023-01-19T07:36:27.393Z,77.73
2023-01-19T07:37:58.906Z,78.40
2023-01-19T07:39:31.931Z,77.64
2023-01-19T07:41:04.430Z,78.02
2023-01-19T07:42:36.142Z,77.39
2023-01-19T07:44:08.699Z,77.36
2023-01-19T07:45:40.327Z,76.91
2023-01-19T07:47:12.677Z,77.66
2023-01-19T07:48:47.321Z,77.29
2023-01-19T07:50:21.340Z,77.52
2023-01-19T07:51:52.940Z,77.19
2023-01-19T07:53:24.481Z,77.39
2023-01-19T07:54:55.945Z,78.22
2023-01-19T07:56:29.927Z,78.25
2023-01-19T07:58:05.060Z,77.87
2023-01-19T07:59:36.630Z,78.10
2023-01-19T08:01:08.754Z,77.77
2023-01-19T08:02:41.134Z,77.35
2023-01-19T08:04:14.035Z,77.55
2023-01-19T08:05:49.677Z,77.82
2023-01-19T08:07:21.298Z,77.75
2023-01-19T08:08:53.174Z,77.55
2023-01-19T08:10:28.316Z,77.48
2023-01-19T08:11:59.842Z,76.90
2023-01-19T08:13:31.337Z,77.16
2023-01-19T08:15:03.362Z,76.50
2023-01-19T08:16:34.929Z,76.33
2023-01-19T08:18:06.830Z,76.77
2023-01-19T08:19:41.585Z,76.83
2023-01-19T08:21:13.191Z,76.88
2023-01-19T08:22:47.099Z,77.15
2023-01-19T08:24:21.205Z,76.37
2023-01-19T08:25:52.738Z,76.56
2023-01-19T08:27:24.362Z,76.41
2023-01-19T08:28:56.486Z,75.87
2023-01-19T08:30:28.066Z,76.40
2023-01-19T08:32:02.145Z,75.98
2023-01-19T08:33:33.746Z,76.67
2023-01-19T08:35:07.486Z,76.50
2023-01-19T08:36:39.139Z,76.81
2023-01-19T08:38:10.902Z,76.65
2023-01-19T08:39:42.455Z,76.89
2023-01-19T08:41:16.397Z,76.80
2023-01-19T08:42:47.898Z,76.38
2023-01-19T08:44:19.487Z,76.52
2023-01-19T08:45:51.947Z,76.62
2023-01-19T08:47:23.445Z,76.91
2023-01-19T08:48:55.013Z,76.47
2023-01-19T08:50:28.586Z,76.15
2023-01-19T08:52:00.034Z,76.36
2023-01-19T08:53:31.556Z,76.21
2023-01-19T08:55:03.073Z,76.31
2023-01-19T08:56:34.589Z,76.31
2023-01-19T08:58:06.653Z,76.06
2023-01-19T08:59:38.172Z,76.33
2023-01-19T09:01:10.277Z,76.41
2023-01-19T09:02:42.418Z,76.10
2023-01-19T09:04:13.938Z,75.83
2023-01-19T09:05:46.850Z,75.75
2023-01-19T09:07:18.752Z,75.22
2023-01-19T09:08:50.262Z,75.44
2023-01-19T09:10:21.784Z,74.91
2023-01-19T09:11:53.734Z,74.74
2023-01-19T09:13:25.310Z,74.53
2023-01-19T09:14:56.841Z,74.91
2023-01-19T09:16:29.303Z,75.07
2023-01-19T09:18:01.742Z,75.00
2023-01-19T09:19:35.016Z,74.34
2023-01-19T09:21:09.283Z,74.97
2023-01-19T09:22:41.507Z,74.97
2023-01-19T09:24:13.010Z,75.20
2023-01-19T09:25:45.272Z,75.01
2023-01-19T09:27:16.825Z,74.51
2023-01-19T09:28:48.349Z,73.96
2023-01-19T09:30:20.153Z,74.55
2023-01-19T09:31:51.707Z,74.66
2023-01-19T09:33:23.327Z,74.67
2023-01-19T09:34:56.435Z,74.50
2023-01-19T09:36:37.890Z,74.42
2023-01-19T09:38:10.256Z,74.21
2023-01-19T09:39:41.919Z,73.96
2023-01-19T09:41:18.201Z,73.82
2023-01-19T09:42:53.369Z,74.20
2023-01-19T09:44:28.621Z,74.06
2023-01-19T09:46:01.177Z,73.78
2023-01-19T09:47:34.451Z,73.70
2023-01-19T09:49:11.131Z,73.86
2023-01-19T09:50:48.323Z,73.51
2023-01-19T09:52:22.387Z,73.87
2023-01-19T09:53:59.990Z,74.31
2023-01-19T09:55:31.585Z,73.53
2023-01-19T09:57:04.206Z,73.80
2023-01-19T09:58:35.702Z,73.83
2023-01-19T10:00:16.462Z,73.58
2023-01-19T10:01:59.415Z,73.31
2023-01-19T10:03:32.338Z,74.16
2023-01-19T10:05:04.902Z,73.71
2023-01-19T10:06:36.588Z,74.00
2023-01-19T10:08:16.512Z,73.83
2023-01-19T10:09:54.895Z,73.81
2023-01-19T10:11:38.101Z,73.68
2023-01-19T10:13:25.000Z,73.62
2023-01-19T10:15:01.628Z,74.08
2023-01-19T10:16:37.661Z,73.80
2023-01-19T10:18:18.877Z,74.26
2023-01-19T10:19:53.602Z,74.70
2023-01-19T10:21:27.187Z,74.81
2023-01-19T10:23:00.546Z,74.75
2023-01-19T10:24:38.491Z,74.79
2023-01-19T10:26:13.467Z,75.12
2023-01-19T10:27:46.292Z,75.31
2023-01-19T10:29:21.836Z,75.01
2023-01-19T10:30:54.463Z,74.65
2023-01-19T10:32:27.395Z,74.55
2023-01-19T10:34:00.216Z,74.17
2023-01-19T10:35:32.063Z,74.55
2023-01-19T10:37:05.269Z,74.78
2023-01-19T10:38:36.821Z,75.08
2023-01-19T10:40:19.953Z,74.77
2023-01-19T10:41:52.311Z,75.17
2023-01-19T10:43:41.492Z,75.24
2023-01-19T10:45:15.528Z,75.05
2023-01-19T10:46:47.986Z,75.80
2023-01-19T10:48:19.631Z,76.04
2023-01-19T10:49:52.113Z,75.70
2023-01-19T10:51:23.739Z,76.15
2023-01-19T10:52:56.108Z,75.93
2023-01-19T10:54:29.285Z,75.37
2023-01-19T10:56:14.342Z,74.82
2023-01-19T10:57:49.217Z,75.12
2023-01-19T10:59:31.388Z,74.08
2023-01-19T11:01:13.335Z,73.61
2023-01-19T11:02:50.088Z,74.02
2023-01-19T11:04:22.620Z,73.77
2023-01-19T11:05:54.110Z,73.90
2023-01-19T11:07:28.604Z,73.77
2023-01-19T11:09:18.112Z,73.64
2023-01-19T11:10:52.644Z,73.30
2023-01-19T11:12:25.566Z,73.44
2023-01-19T11:14:08.726Z,73.75
2023-01-19T11:15:42.368Z,74.21
2023-01-19T11:17:18.029Z,73.89
2023-01-19T11:18:51.998Z,74.01
2023-01-19T11:20:24.678Z,74.06
2023-01-19T11:22:08.795Z,74.13
2023-01-19T11:23:44.190Z,73.88
2023-01-19T11:25:27.322Z,73.37
2023-01-19T11:27:02.975Z,73.05
2023-01-19T11:28:37.575Z,72.55
2023-01-19T11:30:17.509Z,72.15
2023-01-19T11:31:50.097Z,71.64
2023-01-19T11:33:25.602Z,71.57
2023-01-19T11:34:57.905Z,71.39
2023-01-19T11:36:30.820Z,71.03
2023-01-19T11:38:05.906Z,71.28
2023-01-19T11:41:34.490Z,71.27
2023-01-19T11:43:06.059Z,71.15
2023-01-19T11:44:43.014Z,71.06
2023-01-19T11:46:15.238Z,71.25
2023-01-19T11:47:52.493Z,71.30
2023-01-19T11:49:28.579Z,70.83
2023-01-19T11:51:02.616Z,70.96
2023-01-19T11:52:43.150Z,70.54
2023-01-19T11:54:20.988Z,71.00
2023-01-19T11:55:54.803Z,70.76
2023-01-19T11:57:27.260Z,70.86
2023-01-19T11:58:58.781Z,70.79
2023-01-19T12:00:37.564Z,70.82
2023-01-19T12:02:16.231Z,70.46
2023-01-19T12:03:53.859Z,70.28
2023-01-19T12:05:29.871Z,69.82
2023-01-19T12:07:08.794Z,69.77
2023-01-19T12:08:43.335Z,70.07
2023-01-19T12:10:23.851Z,69.31
2023-01-19T12:11:57.811Z,68.57
2023-01-19T12:13:30.516Z,69.38
2023-01-19T12:15:06.821Z,69.21
2023-01-19T12:16:49.707Z,69.23
2023-01-19T12:18:27.552Z,69.39
2023-01-19T12:20:10.770Z,68.82
2023-01-19T12:21:42.424Z,68.00
2023-01-19T12:23:25.963Z,68.40
2023-01-19T12:25:01.435Z,67.90
2023-01-19T12:26:36.427Z,67.71
2023-01-19T12:28:09.923Z,68.21
2023-01-19T12:29:46.298Z,68.61
2023-01-19T12:31:19.285Z,68.91
2023-01-19T12:32:52.595Z,68.56
2023-01-19T12:34:36.756Z,68.96
2023-01-19T12:36:10.983Z,69.47
2023-01-19T12:37:43.426Z,69.78
2023-01-19T12:39:17.110Z,69.11
2023-01-19T12:40:48.647Z,68.63
2023-01-19T12:42:22.895Z,68.55
2023-01-19T12:44:19.177Z,68.37
2023-01-19T12:45:50.668Z,68.83
2023-01-19T12:47:26.711Z,68.39
2023-01-19T12:49:06.380Z,68.17
2023-01-19T12:50:38.403Z,68.40
2023-01-19T12:52:11.854Z,68.73
2023-01-19T12:53:50.242Z,68.47
2023-01-19T12:55:23.353Z,68.40
2023-01-19T12:56:58.168Z,68.57
2023-01-19T12:58:29.791Z,69.19
2023-01-19T13:00:04.768Z,68.75
2023-01-19T13:01:36.525Z,69.21
2023-01-19T13:03:30.715Z,69.09
2023-01-19T13:05:21.352Z,69.33
2023-01-19T13:07:22.679Z,69.29
2023-01-19T13:09:01.633Z,69.00
2023-01-19T13:10:57.120Z,68.95
2023-01-19T13:12:36.412Z,68.35
2023-01-19T13:14:26.224Z,68.87
2023-01-19T13:16:01.358Z,68.53
2023-01-19T13:17:35.958Z,68.89
2023-01-19T13:19:15.364Z,68.68
2023-01-19T13:20:50.985Z,69.03
2023-01-19T13:22:41.255Z,69.17
2023-01-19T13:24:17.383Z,68.38
2023-01-19T13:25:53.437Z,67.78
2023-01-19T13:27:28.490Z,67.86
2023-01-19T13:29:05.650Z,67.81
2023-01-19T13:30:39.851Z,67.33
2023-01-19T13:32:13.559Z,67.80
2023-01-19T13:33:47.972Z,68.53
2023-01-19T13:35:20.667Z,68.35
2023-01-19T13:36:54.955Z,68.78
2023-01-19T13:38:27.830Z,68.65
2023-01-19T13:40:00.000Z,68.22
2023-01-19T13:41:35.481Z,67.07
2023-01-19T13:43:14.016Z,67.48
2023-01-19T13:44:52.276Z,66.67
2023-01-19T13:46:26.324Z,66.72
2023-01-19T13:47:59.512Z,66.87
2023-01-19T13:49:33.418Z,65.91
2023-01-19T13:51:05.939Z,64.71
2023-01-19T13:52:43.216Z,65.48
2023-01-19T13:54:15.426Z,65.37
2023-01-19T13:55:48.138Z,65.68
2023-01-19T13:57:24.260Z,66.31
2023-01-19T13:59:05.443Z,66.64
2023-01-19T14:00:38.462Z,65.87
2023-01-19T14:02:13.853Z,66.00
2023-01-19T14:03:52.120Z,65.42
2023-01-19T14:05:25.597Z,65.86
2023-01-19T14:06:59.088Z,66.31
2023-01-19T14:08:33.780Z,66.88
2023-01-19T14:10:08.235Z,67.62
2023-01-19T14:11:40.178Z,67.50
2023-01-19T14:13:13.693Z,67.77
2023-01-19T14:14:49.579Z,67.14
2023-01-19T14:16:21.281Z,67.10
2023-01-19T14:18:07.910Z,67.30
2023-01-19T14:19:48.992Z,67.19
2023-01-19T14:21:20.501Z,67.05
2023-01-19T14:22:52.224Z,66.35
2023-01-19T14:24:29.557Z,66.47
2023-01-19T14:26:01.233Z,67.16
2023-01-19T14:27:32.901Z,67.67
2023-01-19T14:29:07.575Z,68.61
2023-01-19T14:30:39.328Z,68.67
2023-01-19T14:32:15.407Z,68.83
2023-01-19T14:33:48.057Z,68.67
2023-01-19T14:35:24.454Z,68.90
2023-01-19T14:36:56.013Z,69.11
2023-01-19T14:38:27.593Z,68.92
2023-01-19T14:40:01.643Z,69.38
2023-01-19T14:41:36.644Z,69.17
2023-01-19T14:43:13.135Z,69.28
2023-01-19T14:44:48.042Z,69.10
2023-01-19T14:46:20.979Z,69.29
2023-01-19T14:47:54.684Z,69.26
2023-01-19T14:49:31.435Z,69.39
2023-01-19T14:51:04.339Z,69.63
2023-01-19T14:54:15.916Z,69.22
2023-01-19T14:55:49.886Z,69.17
2023-01-19T14:57:21.375Z,68.82
2023-01-19T14:58:53.168Z,69.19
2023-01-19T15:00:24.876Z,69.51
2023-01-19T15:01:56.765Z,69.32
2023-01-19T15:03:44.727Z,69.02
2023-01-19T15:05:17.381Z,69.40
2023-01-19T15:06:48.924Z,69.27
2023-01-19T15:08:24.015Z,69.00
2023-01-19T15:09:55.515Z,68.81
2023-01-19T15:11:31.013Z,68.61
2023-01-19T15:13:02.702Z,68.97
2023-01-19T15:16:06.719Z,70.10
2023-01-19T15:17:38.304Z,70.05
2023-01-19T15:19:11.533Z,70.56
2023-01-19T15:20:43.223Z,70.48
2023-01-19T15:22:14.779Z,71.13
2023-01-19T15:23:47.449Z,71.22
2023-01-19T15:25:20.348Z,70.77
2023-01-19T15:26:53.181Z,71.09
2023-01-19T15:28:24.779Z,71.55
2023-01-19T15:29:56.589Z,71.47
2023-01-19T15:31:28.280Z,71.79
2023-01-19T15:32:59.899Z,71.46
2023-01-19T15:34:31.628Z,71.98
2023-01-19T15:36:03.279Z,71.78
2023-01-19T15:37:34.767Z,71.91
2023-01-19T15:39:06.258Z,71.80
2023-01-19T15:40:37.887Z,72.07
2023-01-19T15:42:13.007Z,72.21
2023-01-19T15:43:44.630Z,72.16
2023-01-19T15:45:31.016Z,72.10
2023-01-19T15:47:02.596Z,71.68
2023-01-19T15:48:34.206Z,72.00
2023-01-19T15:50:06.346Z,72.00
2023-01-19T15:51:38.160Z,71.96
2023-01-19T15:53:13.362Z,71.81
2023-01-19T15:54:44.869Z,71.53
2023-01-19T15:56:17.246Z,71.10
2023-01-19T15:57:50.135Z,71.14
2023-01-19T15:59:23.699Z,70.88
2023-01-19T16:00:56.500Z,71.17
2023-01-19T16:02:28.084Z,71.06
2023-01-19T16:04:01.392Z,71.32
2023-01-19T16:05:42.634Z,70.94
2023-01-19T16:07:14.964Z,70.78
2023-01-19T16:08:46.515Z,71.22
2023-01-19T16:10:18.198Z,70.74
2023-01-19T16:11:49.689Z,71.02
2023-01-19T16:13:22.658Z,70.74
2023-01-19T16:14:54.200Z,70.63
2023-01-19T16:16:27.998Z,70.30
2023-01-19T16:17:59.660Z,70.43
2023-01-19T16:19:34.391Z,70.22
2023-01-19T16:21:06.103Z,70.01
2023-01-19T16:22:38.834Z,70.19
2023-01-19T16:24:10.397Z,70.29
2023-01-19T16:25:41.978Z,70.38
2023-01-19T16:27:13.513Z,70.38
2023-01-19T16:28:46.644Z,70.63
2023-01-19T16:30:19.435Z,70.42
2023-01-19T16:31:51.048Z,70.36
2023-01-19T16:33:22.975Z,70.43
2023-01-19T16:34:54.621Z,69.86
2023-01-19T16:36:26.926Z,70.02
2023-01-19T16:37:58.479Z,70.12
2023-01-19T16:39:30.050Z,70.00
2023-01-19T16:41:01.619Z,69.94
2023-01-19T16:42:33.476Z,70.54
2023-01-19T16:44:06.996Z,70.45
2023-01-19T16:45:55.103Z,70.87
2023-01-19T16:47:26.731Z,70.60
2023-01-19T16:48:59.569Z,70.47
2023-01-19T16:50:31.146Z,70.06
2023-01-19T16:52:05.531Z,69.90
2023-01-19T16:53:37.215Z,70.12
2023-01-19T16:55:11.086Z,69.89
2023-01-19T16:56:42.651Z,70.52
2023-01-19T16:58:14.237Z,70.03
2023-01-19T16:59:47.149Z,70.41
2023-01-19T17:01:20.339Z,70.92
2023-01-19T17:02:52.090Z,70.64
2023-01-19T17:04:23.953Z,71.13
2023-01-19T17:05:55.444Z,71.23
2023-01-19T17:07:27.435Z,71.26
2023-01-19T17:08:59.320Z,70.53
2023-01-19T17:10:30.809Z,70.77
2023-01-19T17:12:02.340Z,70.85
2023-01-19T17:13:33.863Z,70.59
2023-01-19T17:15:07.573Z,70.49
2023-01-19T17:16:39.163Z,71.29
2023-01-19T17:18:13.254Z,71.12
2023-01-19T17:19:45.154Z,71.03
2023-01-19T17:21:20.036Z,70.91
2023-01-19T17:22:51.613Z,70.91
2023-01-19T17:24:23.215Z,71.06
2023-01-19T17:25:55.227Z,71.37
2023-01-19T17:27:26.739Z,71.07
2023-01-19T17:28:58.498Z,70.88
2023-01-19T17:30:31.454Z,71.09
2023-01-19T17:32:03.115Z,71.05
2023-01-19T17:33:37.041Z,71.67
2023-01-19T17:35:08.971Z,71.82
2023-01-19T17:36:41.022Z,71.84
2023-01-19T17:38:12.646Z,71.87
2023-01-19T17:39:44.115Z,71.95
2023-01-19T17:41:16.644Z,71.73
2023-01-19T17:42:48.138Z,71.46
2023-01-19T17:44:19.737Z,71.77
2023-01-19T17:45:52.560Z,72.10
2023-01-19T17:47:25.852Z,71.69
2023-01-19T17:48:58.095Z,71.69
2023-01-19T17:50:29.648Z,71.74
2023-01-19T17:52:01.193Z,71.51
2023-01-19T17:53:32.739Z,71.86
2023-01-19T17:55:04.542Z,71.44
2023-01-19T17:56:38.451Z,71.67
2023-01-19T17:58:09.936Z,71.94
2023-01-19T17:59:43.770Z,71.67
2023-01-19T18:01:17.504Z,71.98
2023-01-19T18:02:50.536Z,72.28
2023-01-19T18:04:22.160Z,71.82
2023-01-19T18:05:54.037Z,72.24
2023-01-19T18:07:25.545Z,71.82
2023-01-19T18:08:58.463Z,72.63
2023-01-19T18:10:30.020Z,71.88
2023-01-19T18:12:04.432Z,71.95
2023-01-19T18:13:36.550Z,72.49
2023-01-19T18:15:08.671Z,72.22
2023-01-19T18:16:41.558Z,72.08
2023-01-19T18:18:13.141Z,72.15
2023-01-19T18:19:44.722Z,72.00
2023-01-19T18:21:16.824Z,71.81
2023-01-19T18:22:48.291Z,71.93
2023-01-19T18:24:19.827Z,71.81
2023-01-19T18:25:57.336Z,71.75
2023-01-19T18:27:29.396Z,71.92
2023-01-19T18:29:02.002Z,71.72
2023-01-19T18:30:34.055Z,71.88
2023-01-19T18:32:07.027Z,71.63
2023-01-19T18:33:38.964Z,71.59
2023-01-19T18:35:10.469Z,71.53
2023-01-19T18:36:42.008Z,72.06
2023-01-19T18:38:13.804Z,71.75
2023-01-19T18:39:45.287Z,71.83
2023-01-19T18:41:17.647Z,72.12
2023-01-19T18:42:49.396Z,71.40
2023-01-19T18:44:21.966Z,71.31
2023-01-19T18:45:53.427Z,71.64
2023-01-19T18:47:27.270Z,71.30
2023-01-19T18:48:58.818Z,71.30
2023-01-19T18:50:30.488Z,71.60
2023-01-19T18:52:03.792Z,71.37
2023-01-19T18:53:37.713Z,71.21
2023-01-19T18:55:09.419Z,71.88
2023-01-19T18:56:40.919Z,71.14
2023-01-19T18:58:12.527Z,71.00
2023-01-19T18:59:44.050Z,71.34
2023-01-19T19:01:20.304Z,71.26
2023-01-19T19:02:55.557Z,71.25
2023-01-19T19:04:27.131Z,71.16
2023-01-19T19:06:01.738Z,71.09
2023-01-19T19:07:33.647Z,70.75
2023-01-19T19:09:05.350Z,71.15
2023-01-19T19:10:37.248Z,71.39
2023-01-19T19:12:09.752Z,70.78
2023-01-19T19:13:41.396Z,71.40
2023-01-19T19:15:13.926Z,71.41
2023-01-19T19:16:45.662Z,70.97
2023-01-19T19:18:18.545Z,71.08
2023-01-19T19:19:50.165Z,70.95
2023-01-19T19:21:22.579Z,71.02
2023-01-19T19:22:54.437Z,70.54
2023-01-19T19:24:26.006Z,70.81
2023-01-19T19:26:01.172Z,71.25
2023-01-19T19:27:33.284Z,71.17
2023-01-19T19:29:05.228Z,71.02
2023-01-19T19:30:38.906Z,70.80
2023-01-19T19:32:10.614Z,70.64
2023-01-19T19:33:43.727Z,70.62
2023-01-19T19:35:18.632Z,71.11
2023-01-19T19:36:50.986Z,70.86
2023-01-19T19:38:22.572Z,70.53
2023-01-19T19:39:55.739Z,70.58
2023-01-19T19:41:28.005Z,70.57
2023-01-19T19:42:59.959Z,71.08
2023-01-19T19:44:35.577Z,70.98
2023-01-19T19:46:08.004Z,70.80
2023-01-19T19:47:43.018Z,70.62
2023-01-19T19:49:23.625Z,70.35
2023-01-19T19:50:58.634Z,71.07
2023-01-19T19:52:32.029Z,70.42
2023-01-19T19:54:03.531Z,70.59
2023-01-19T19:55:35.486Z,70.43
2023-01-19T19:57:07.051Z,70.41
2023-01-19T19:58:39.036Z,70.72
2023-01-19T20:00:14.240Z,70.32
2023-01-19T20:01:48.071Z,70.80
2023-01-19T20:03:20.257Z,70.29
2023-01-19T20:04:53.558Z,70.13
2023-01-19T20:06:26.324Z,70.19
2023-01-19T20:07:59.025Z,70.19
2023-01-19T20:09:30.873Z,70.79
2023-01-19T20:11:06.923Z,70.58
2023-01-19T20:12:47.981Z,70.66